Map

Track Data

SID SEASON NUMBER BASIN SUBBASIN NAME ISO_TIME NATURE LAT LON WMO_WIND WMO_PRES WMO_AGENCY TRACK_TYPE DIST2LAND LANDFALL IFLAG USA_AGENCY USA_ATCF_ID USA_LAT USA_LON USA_RECORD USA_STATUS USA_WIND USA_PRES USA_SSHS USA_R34_NE USA_R34_SE USA_R34_SW USA_R34_NW USA_R50_NE USA_R50_SE USA_R50_SW USA_R50_NW USA_R64_NE USA_R64_SE USA_R64_SW USA_R64_NW USA_POCI USA_ROCI USA_RMW USA_EYE TOKYO_LAT TOKYO_LON TOKYO_GRADE TOKYO_WIND TOKYO_PRES TOKYO_R50_DIR TOKYO_R50_LONG TOKYO_R50_SHORT TOKYO_R30_DIR TOKYO_R30_LONG TOKYO_R30_SHORT TOKYO_LAND CMA_LAT CMA_LON CMA_CAT CMA_WIND CMA_PRES HKO_LAT HKO_LON HKO_CAT HKO_WIND HKO_PRES NEWDELHI_LAT NEWDELHI_LON NEWDELHI_GRADE NEWDELHI_WIND NEWDELHI_PRES NEWDELHI_CI NEWDELHI_DP NEWDELHI_POCI REUNION_LAT REUNION_LON REUNION_TYPE REUNION_WIND REUNION_PRES REUNION_TNUM REUNION_CI REUNION_RMW REUNION_R34_NE REUNION_R34_SE REUNION_R34_SW REUNION_R34_NW REUNION_R50_NE REUNION_R50_SE REUNION_R50_SW REUNION_R50_NW REUNION_R64_NE REUNION_R64_SE REUNION_R64_SW REUNION_R64_NW BOM_LAT BOM_LON BOM_TYPE BOM_WIND BOM_PRES BOM_TNUM BOM_CI BOM_RMW BOM_R34_NE BOM_R34_SE BOM_R34_SW BOM_R34_NW BOM_R50_NE BOM_R50_SE BOM_R50_SW BOM_R50_NW BOM_R64_NE BOM_R64_SE BOM_R64_SW BOM_R64_NW BOM_ROCI BOM_POCI BOM_EYE BOM_POS_METHOD BOM_PRES_METHOD NADI_LAT NADI_LON NADI_CAT NADI_WIND NADI_PRES WELLINGTON_LAT WELLINGTON_LON WELLINGTON_WIND WELLINGTON_PRES DS824_LAT DS824_LON DS824_STAGE DS824_WIND DS824_PRES TD9636_LAT TD9636_LON TD9636_STAGE TD9636_WIND TD9636_PRES TD9635_LAT TD9635_LON TD9635_WIND TD9635_PRES TD9635_ROCI NEUMANN_LAT NEUMANN_LON NEUMANN_CLASS NEUMANN_WIND NEUMANN_PRES MLC_LAT MLC_LON MLC_CLASS MLC_WIND MLC_PRES USA_GUST BOM_GUST BOM_GUST_PER REUNION_GUST REUNION_GUST_PER USA_SEAHGT USA_SEARAD_NE USA_SEARAD_SE USA_SEARAD_SW USA_SEARAD_NW STORM_SPEED STORM_DIR
1946038S20120 1946 11 SI WA NOT_NAMED 1946-02-07 01:00:00 NR -19.7000 119.500 998 bom main 44 44 ______O_______ -1 -19.7000 119.500 998 7 268
1946038S20120 1946 11 SI WA NOT_NAMED 1946-02-07 03:00:00 NR -19.7089 119.270 main 44 44 ______P_______ -1 -19.7089 119.270 6 268
1946038S20120 1946 11 SI WA NOT_NAMED 1946-02-07 06:00:00 NR -19.7218 118.926 main 49 49 ______P_______ -1 -19.7218 118.926 6 268
1946038S20120 1946 11 SI WA NOT_NAMED 1946-02-07 09:00:00 NR -19.7342 118.588 main 68 68 ______P_______ -1 -19.7342 118.588 6 268
1946038S20120 1946 11 SI WA NOT_NAMED 1946-02-07 12:00:00 NR -19.7463 118.258 main 78 67 ______P_______ -1 -19.7463 118.258 6 268
1946038S20120 1946 11 SI WA NOT_NAMED 1946-02-07 15:00:00 NR -19.7583 117.939 main 70 70 ______P_______ -1 -19.7583 117.939 6 268
1946038S20120 1946 11 SI WA NOT_NAMED 1946-02-07 18:00:00 NR -19.7704 117.635 main 84 84 ______P_______ -1 -19.7704 117.635 6 267
1946038S20120 1946 11 SI WA NOT_NAMED 1946-02-07 21:00:00 NR -19.7827 117.349 main 100 100 ______P_______ -1 -19.7827 117.349 8 286
1946038S20120 1946 11 SI WA NOT_NAMED 1946-02-07 23:00:00 NR -19.5930 116.975 main 113 123 ______P___O___ -1 -19.7912 117.169 -18.8000 116.200 7 16 307
1946038S20120 1946 11 SI WA NOT_NAMED 1946-02-08 00:00:00 TS -19.3198 116.686 main 145 145 O_____P__OP___ jtwc_sh SH111946 -18.7000 116.200 -1 -19.7956 117.083 -18.7000 116.200 TC -18.7478 116.172 7 17 315
1946038S20120 1946 11 SI WA NOT_NAMED 1946-02-08 01:00:00 TS -19.1905 116.552 995 bom main 156 156 P_____O__PP___ SH111946 -18.6446 116.166 -1 -19.8000 117.000 995 4 -18.6446 116.166 TC -18.6957 116.144 7 7 314
1946038S20120 1946 11 SI WA NOT_NAMED 1946-02-08 03:00:00 TS -19.0754 116.414 main 170 170 P_____P__PP___ SH111946 -18.5375 116.097 -1 -19.8091 116.842 -18.5375 116.097 TC -18.5921 116.086 7 4 308
1946038S20120 1946 11 SI WA NOT_NAMED 1946-02-08 06:00:00 TS -18.9793 116.269 main 183 183 O_____P__OP___ jtwc_sh SH111946 -18.4000 116.000 -1 -19.8232 116.623 -18.4000 116.000 TC -18.4397 115.992 7 3 301
1946038S20120 1946 11 SI WA NOT_NAMED 1946-02-08 09:00:00 TS -18.9160 116.134 main 200 200 P_____P__PP___ SH111946 -18.3000 115.908 -1 -19.8376 116.425 -18.3000 115.908 TC -18.2932 115.884 7 3 295
1946038S20120 1946 11 SI WA NOT_NAMED 1946-02-08 11:00:00 TS -18.8757 116.042 main 203 203 P_____P__PO___ SH111946 -18.2364 115.839 -1 -19.8470 116.303 -18.2364 115.839 TC -18.2000 115.800 7 3 296
1946038S20120 1946 11 SI WA NOT_NAMED 1946-02-08 12:00:00 TS -18.8540 115.993 main 203 214 O_____P__OP___ jtwc_sh SH111946 -18.2000 115.800 -1 -19.8517 116.244 -18.2000 115.800 TC -18.1552 115.754 7 3 300
1946038S20120 1946 11 SI WA NOT_NAMED 1946-02-08 15:00:00 TS -18.7635 115.838 main 222 222 P_____P__PP___ SH111946 -18.0200 115.657 -1 -19.8652 116.079 -18.0200 115.657 TC -18.0366 115.605 7 3 297
1946038S20120 1946 11 SI WA NOT_NAMED 1946-02-08 18:00:00 TS -18.7051 115.679 main 236 236 O_____P__OP___ jtwc_sh SH111946 -17.9000 115.500 -1 -19.8776 115.925 -17.9000 115.500 TC -17.9613 115.447 7 3 278
1946038S20120 1946 11 SI WA NOT_NAMED 1946-02-08 21:00:00 TS -18.7235 115.527 main 246 237 P_____P__PP___ SH111946 -17.9400 115.350 -1 -19.8886 115.782 -17.9400 115.350 TC -17.9544 115.294 7 3 254
1946038S20120 1946 11 SI WA NOT_NAMED 1946-02-08 23:00:00 TS -18.7732 115.428 main 243 243 P_____P__PO___ SH111946 -18.0364 115.250 -1 -19.8948 115.690 -18.0364 115.250 TC -18.0000 115.200 7 3 239
1946038S20120 1946 11 SI WA NOT_NAMED 1946-02-09 00:00:00 TS -18.8081 115.380 main 243 243 O_____P__OP___ jtwc_sh SH111946 -18.1000 115.200 -1 -19.8975 115.645 -18.1000 115.200 TC -18.0431 115.154 7 4 232
1946038S20120 1946 11 SI WA NOT_NAMED 1946-02-09 01:00:00 TS -18.8463 115.330 998 bom main 249 240 P_____O__PP___ SH111946 -18.1662 115.145 -1 -19.9000 115.600 998 -18.1662 115.145 TC -18.0981 115.109 7 4 227
1946038S20120 1946 11 SI WA NOT_NAMED 1946-02-09 03:00:00 TS -18.9396 115.230 main 246 231 P_____P__PP___ SH111946 -18.3275 115.035 -1 -19.9019 115.507 -18.3275 115.035 TC -18.2385 115.024 7 4 220
1946038S20120 1946 11 SI WA NOT_NAMED 1946-02-09 06:00:00 TS -19.1019 115.099 main 231 218 O_____P__OP___ jtwc_sh SH111946 -18.6000 114.900 -1 -19.9028 115.375 -18.6000 114.900 TC -18.5039 114.914 7 4 214
1946038S20120 1946 11 SI WA NOT_NAMED 1946-02-09 09:00:00 TS -19.2610 114.999 main 218 209 P_____P__PP___ SH111946 -18.8500 114.820 -1 -19.9019 115.251 -18.8500 114.820 TC -18.8019 114.833 7 4 208
1946038S20120 1946 11 SI WA NOT_NAMED 1946-02-09 11:00:00 TS -19.3669 114.950 main 209 215 P_____P__PO___ SH111946 -19.0167 114.800 -1 -19.9007 115.171 -19.0167 114.800 TC -19.0000 114.800 7 3 200
1946038S20120 1946 11 SI WA NOT_NAMED 1946-02-09 12:00:00 TS -19.4185 114.935 main 215 197 O_____P__OP___ jtwc_sh SH111946 -19.1000 114.800 -1 -19.9001 115.132 -19.1000 114.800 TC -19.0931 114.806 7 3 193
1946038S20120 1946 11 SI WA NOT_NAMED 1946-02-09 15:00:00 TS -19.5745 114.912 main 197 188 P_____P__PP___ SH111946 -19.3500 114.842 -1 -19.8980 115.014 -19.3500 114.842 TC -19.3766 114.858 7 3 187
1946038S20120 1946 11 SI WA NOT_NAMED 1946-02-09 18:00:00 TS -19.7280 114.897 main 188 169 O_____P__OP___ jtwc_sh SH111946 -19.6000 114.900 -1 -19.8966 114.895 -19.6000 114.900 TC -19.6468 114.920 7 3 187
1946038S20120 1946 11 SI WA NOT_NAMED 1946-02-09 21:00:00 TS -19.8865 114.868 main 169 168 P_____P__PP___ SH111946 -19.8799 114.945 -1 -19.8966 114.773 -19.8799 114.945 TC -19.8788 114.938 7 3 196
1946038S20120 1946 11 SI WA NOT_NAMED 1946-02-09 23:00:00 TS -19.9751 114.819 main 168 168 P_____P__PO___ SH111946 -20.0395 114.931 -1 -19.8977 114.688 -20.0395 114.931 TC -20.0000 114.900 7 3 214
1946038S20120 1946 11 SI WA NOT_NAMED 1946-02-10 00:00:00 TS -20.0094 114.780 main 168 168 O_____P__OP___ jtwc_sh SH111946 -20.1000 114.900 -1 -19.8987 114.645 -20.1000 114.900 TC -20.0484 114.855 7 3 235
1946038S20120 1946 11 SI WA NOT_NAMED 1946-02-10 01:00:00 TS -20.0353 114.730 997 bom main 175 167 P_____O__PP___ SH111946 -20.1421 114.850 -1 -19.9000 114.600 997 -20.1421 114.850 TC -20.0895 114.799 7 4 250
1946038S20120 1946 11 SI WA NOT_NAMED 1946-02-10 03:00:00 TS -20.0685 114.601 main 175 175 P_____P__PP___ SH111946 -20.1875 114.703 -1 -19.9063 114.496 -20.1875 114.703 TC -20.1515 114.656 7 4 261
1946038S20120 1946 11 SI WA NOT_NAMED 1946-02-10 06:00:00 TS -20.0882 114.361 main 186 189 O_____P__OP___ jtwc_sh SH111946 -20.2000 114.400 -1 -19.9178 114.332 -20.2000 114.400 TC -20.2014 114.378 7 5 266
1946038S20120 1946 11 SI WA NOT_NAMED 1946-02-10 09:00:00 TS -20.1014 114.098 main 197 197 P_____P__PP___ SH111946 -20.2150 114.073 -1 -19.9312 114.163 -20.2150 114.073 TC -20.2104 114.044 7 5 268
1946038S20120 1946 11 SI WA NOT_NAMED 1946-02-10 11:00:00 TS -20.1005 113.908 main 201 201 P_____P__PO___ SH111946 -20.2083 113.828 -1 -19.9406 114.049 -20.2083 113.828 TC -20.2000 113.800 7 5 273
1946038S20120 1946 11 SI WA NOT_NAMED 1946-02-10 12:00:00 TS -20.0860 113.823 main 202 202 O_____P__OP___ jtwc_sh SH111946 -20.2000 113.700 -1 -19.9455 113.992 -20.2000 113.700 TC -20.1912 113.674 7 5 277
1946038S20120 1946 11 SI WA NOT_NAMED 1946-02-10 15:00:00 TS -20.0590 113.561 main 205 207 P_____P__PP___ SH111946 -20.1577 113.305 -1 -19.9600 113.822 -20.1577 113.305 TC -20.1536 113.286 7 4 278
1946038S20120 1946 11 SI WA NOT_NAMED 1946-02-10 18:00:00 TS -20.0243 113.370 main 221 221 O_____P__OP___ jtwc_sh SH111946 -20.1000 112.900 -1 -19.9740 113.655 -20.1000 112.900 TC -20.1025 112.885 7 2 284
1946038S20120 1946 11 SI WA NOT_NAMED 1946-02-10 21:00:00 TS -19.9992 113.309 main 224 224 ______P___P___ SH111946 -1 -19.9866 113.496 TC -20.0425 112.475 7 1 289
1946038S20120 1946 11 SI WA NOT_NAMED 1946-02-10 23:00:00 TS -19.9960 113.285 main 224 221 ______P___O___ SH111946 -1 -19.9939 113.395 TC -20.0000 112.200 7 1 89
1946038S20120 1946 11 SI WA NOT_NAMED 1946-02-11 00:00:00 TS -19.9985 113.373 main 221 221 ______P_______ -1 -19.9971 113.347 7 1 98
1946038S20120 1946 11 SI WA NOT_NAMED 1946-02-11 01:00:00 TS -20.0013 113.328 1002 bom main 224 224 ______O_______ -1 -20.0000 113.300 1002 7 3 267
1946038S20120 1946 11 SI WA NOT_NAMED 1946-02-11 03:00:00 TS -20.0058 113.240 main 228 228 ______P_______ -1 -20.0048 113.211 7 2 267
1946038S20120 1946 11 SI WA NOT_NAMED 1946-02-11 06:00:00 TS -20.0103 113.117 main 232 232 ______P_______ -1 -20.0097 113.088 7 2 268
1946038S20120 1946 11 SI WA NOT_NAMED 1946-02-11 09:00:00 TS -20.0124 113.003 main 236 236 ______P_______ -1 -20.0121 112.976 7 2 269
1946038S20120 1946 11 SI WA NOT_NAMED 1946-02-11 12:00:00 TS -20.0125 112.896 main 241 241 ______P_______ -1 -20.0125 112.875 2 270
1946038S20120 1946 11 SI WA NOT_NAMED 1946-02-11 15:00:00 TS -20.0110 112.795 main 246 246 ______P_______ -1 -20.0113 112.780 2 271
1946038S20120 1946 11 SI WA NOT_NAMED 1946-02-11 18:00:00 TS -20.0084 112.698 main 251 251 ______P_______ -1 -20.0088 112.692 2 272
1946038S20120 1946 11 SI WA NOT_NAMED 1946-02-11 21:00:00 TS -20.0049 112.606 main 257 257 ______P_______ -1 -20.0053 112.608 2 273
1946038S20120 1946 11 SI WA NOT_NAMED 1946-02-12 00:00:00 TS -20.0009 112.518 main 263 263 ______P_______ -1 -20.0014 112.527 1 273
1946038S20120 1946 11 SI WA NOT_NAMED 1946-02-12 01:00:00 NR -20.0000 112.500 1003 bom main 263 ______O_______ -1 -20.0000 112.500 1003 1 0

About IBTrACS Database

This database is a web-friendly format of International Best Track Archive for Climate Stewardship (IBTrACS), a global best track data archive curated by NOAA dating back to 1842.

Updated: 2021-10-25